createdAt,value
2018-04-08T00:00:29.570Z,45.80
2018-04-08T00:05:32.058Z,45.60
2018-04-08T00:10:34.549Z,45.50
2018-04-08T00:15:37.034Z,45.60
2018-04-08T00:20:39.513Z,45.60
2018-04-08T00:25:42.014Z,45.10
2018-04-08T00:30:44.930Z,45.80
2018-04-08T00:35:47.429Z,45.20
2018-04-08T00:40:50.698Z,45.30
2018-04-08T00:45:53.957Z,45.50
2018-04-08T00:50:56.461Z,45.30
2018-04-08T00:55:58.946Z,45.40
2018-04-08T01:01:01.442Z,45.70
2018-04-08T01:06:03.933Z,45.60
2018-04-08T01:11:06.445Z,45.80
2018-04-08T01:16:08.936Z,46.40
2018-04-08T01:21:11.518Z,45.60
2018-04-08T01:26:14.034Z,45.70
2018-04-08T01:31:16.584Z,46.00
2018-04-08T01:36:19.847Z,45.70
2018-04-08T01:41:22.342Z,45.70
2018-04-08T01:46:24.830Z,45.50
2018-04-08T01:51:27.321Z,45.90
2018-04-08T01:56:29.810Z,45.50
2018-04-08T02:01:32.306Z,45.90
2018-04-08T02:06:34.800Z,45.60
2018-04-08T02:11:37.302Z,45.70
2018-04-08T02:16:39.785Z,46.30
2018-04-08T02:21:42.285Z,46.00
2018-04-08T02:26:44.777Z,46.40
2018-04-08T02:31:47.278Z,46.20
2018-04-08T02:36:50.513Z,46.00
2018-04-08T02:41:53.073Z,46.30
2018-04-08T02:46:56.320Z,46.40
2018-04-08T02:51:58.827Z,46.20
2018-04-08T02:57:01.313Z,46.60
2018-04-08T03:02:03.800Z,46.80
2018-04-08T03:07:06.293Z,46.40
2018-04-08T03:12:09.562Z,46.50
2018-04-08T03:17:12.822Z,46.30
2018-04-08T03:22:15.312Z,46.40
2018-04-08T03:27:17.793Z,46.60
2018-04-08T03:32:20.276Z,46.40
2018-04-08T03:37:23.553Z,46.30
2018-04-08T03:42:26.031Z,46.30
2018-04-08T03:47:28.514Z,46.60
2018-04-08T03:52:31.016Z,46.90
2018-04-08T03:57:33.513Z,46.90
2018-04-08T04:02:36.005Z,47.20
2018-04-08T04:07:38.498Z,47.00
2018-04-08T04:12:40.997Z,47.00
2018-04-08T04:17:43.478Z,47.10
2018-04-08T04:22:57.769Z,47.10
2018-04-08T04:28:00.269Z,47.40
2018-04-08T04:33:02.751Z,47.30
2018-04-08T04:38:05.238Z,47.80
2018-04-08T04:43:07.721Z,47.90
2018-04-08T04:48:10.213Z,47.60
2018-04-08T04:53:12.803Z,47.60
2018-04-08T04:58:16.037Z,48.00
2018-04-08T05:03:18.529Z,47.90
2018-04-08T05:08:21.034Z,48.00
2018-04-08T05:13:23.529Z,47.90
2018-04-08T05:18:26.026Z,47.80
2018-04-08T05:23:28.526Z,47.80
2018-04-08T05:28:31.018Z,47.90
2018-04-08T05:33:33.501Z,48.20
2018-04-08T05:38:35.990Z,48.10
2018-04-08T05:43:38.481Z,48.20
2018-04-08T05:48:41.097Z,48.40
2018-04-08T05:53:43.574Z,48.20
2018-04-08T05:58:46.381Z,48.30
2018-04-08T06:03:48.871Z,48.20
2018-04-08T06:08:51.369Z,48.30
2018-04-08T06:13:54.628Z,48.20
2018-04-08T06:18:57.143Z,48.40
2018-04-08T06:23:59.645Z,48.90
2018-04-08T06:29:02.128Z,48.80
2018-04-08T06:34:04.625Z,48.80
2018-04-08T06:39:07.111Z,48.80
2018-04-08T06:44:10.161Z,49.20
2018-04-08T06:49:12.644Z,48.90
2018-04-08T06:54:15.125Z,48.80
2018-04-08T06:59:17.621Z,49.30
2018-04-08T07:04:20.110Z,49.30
2018-04-08T07:09:22.597Z,49.20
2018-04-08T07:14:25.091Z,49.20
2018-04-08T07:19:27.586Z,49.20
2018-04-08T07:24:30.065Z,49.30
2018-04-08T07:29:32.548Z,50.10
2018-04-08T07:34:35.034Z,50.50
2018-04-08T07:39:37.524Z,50.80
2018-04-08T07:44:40.006Z,50.20
2018-04-08T07:49:43.269Z,50.20
2018-04-08T07:54:45.765Z,50.20
2018-04-08T07:59:49.433Z,50.00
2018-04-08T08:04:51.996Z,50.20
2018-04-08T08:09:54.502Z,51.00
2018-04-08T08:14:57.013Z,51.60
2018-04-08T08:19:59.511Z,53.00
2018-04-08T08:25:02.013Z,52.50
2018-04-08T08:30:05.285Z,52.20
2018-04-08T08:35:07.786Z,52.10
2018-04-08T08:40:10.290Z,51.90
2018-04-08T08:45:12.819Z,51.80
2018-04-08T08:50:16.108Z,53.60
2018-04-08T08:55:18.629Z,53.60
2018-04-08T09:00:21.926Z,53.30
2018-04-08T09:05:24.390Z,53.40
2018-04-08T09:10:26.878Z,54.60
2018-04-08T09:15:29.357Z,54.60
2018-04-08T09:20:34.340Z,55.90
2018-04-08T09:31:20.490Z,54.10
2018-04-08T09:36:23.066Z,55.10
2018-04-08T09:41:27.519Z,55.60
2018-04-08T09:46:31.098Z,56.50
2018-04-08T09:51:33.699Z,55.20
2018-04-08T09:56:37.224Z,54.60
2018-04-08T10:01:46.545Z,55.20
2018-04-08T10:06:49.834Z,55.10
2018-04-08T10:11:52.486Z,55.70
2018-04-08T10:16:55.014Z,54.60
2018-04-08T10:21:57.537Z,52.90
2018-04-08T10:27:00.429Z,52.50
2018-04-08T10:32:03.856Z,53.60
2018-04-08T10:37:07.246Z,52.20
2018-04-08T10:42:09.841Z,52.10
2018-04-08T10:47:12.474Z,52.90
2018-04-08T10:52:18.402Z,51.70
2018-04-08T10:57:21.086Z,51.80
2018-04-08T11:02:23.696Z,51.30
2018-04-08T11:07:26.303Z,50.50
2018-04-08T11:12:28.977Z,50.60
2018-04-08T11:17:31.757Z,51.30
2018-04-08T11:22:35.275Z,50.00
2018-04-08T11:27:37.946Z,50.00
2018-04-08T11:32:44.688Z,49.80
2018-04-08T11:37:47.304Z,49.80
2018-04-08T11:42:50.564Z,48.90
2018-04-08T11:47:53.368Z,48.90
2018-04-08T11:53:01.065Z,49.30
2018-04-08T12:03:49.473Z,48.00
2018-04-08T12:09:10.675Z,48.00
2018-04-08T12:14:18.479Z,46.50
2018-04-08T12:19:21.084Z,46.10
2018-04-08T12:24:24.929Z,45.40
2018-04-08T12:29:27.524Z,47.80
2018-04-08T12:34:30.924Z,46.10
2018-04-08T12:39:41.504Z,46.00
2018-04-08T12:44:46.120Z,44.50
2018-04-08T12:49:48.694Z,45.30
2018-04-08T12:54:51.306Z,45.00
2018-04-08T12:59:54.787Z,44.90
2018-04-08T13:04:58.377Z,45.40
2018-04-08T13:10:03.839Z,46.20
2018-04-08T13:15:07.482Z,46.20
2018-04-08T13:20:10.270Z,45.10
2018-04-08T13:25:12.972Z,46.00
2018-04-08T13:30:27.193Z,46.50
2018-04-08T13:35:30.657Z,46.90
2018-04-08T13:40:34.029Z,44.50
2018-04-08T13:45:36.806Z,44.40
2018-04-08T13:50:40.496Z,46.20
2018-04-08T13:55:43.029Z,45.50
2018-04-08T14:00:45.529Z,44.90
2018-04-08T14:05:48.040Z,43.00
2018-04-08T14:10:50.543Z,45.50
2018-04-08T14:15:53.037Z,44.40
2018-04-08T14:20:55.547Z,47.40
2018-04-08T14:25:58.022Z,44.20
2018-04-08T14:31:00.560Z,45.30
2018-04-08T14:36:02.998Z,44.20
2018-04-08T14:41:05.472Z,43.10
2018-04-08T14:46:07.962Z,44.20
2018-04-08T14:51:10.455Z,45.30
2018-04-08T14:56:12.934Z,43.90
2018-04-08T15:01:16.186Z,44.50
2018-04-08T15:06:18.673Z,44.50
2018-04-08T15:11:21.169Z,44.10
2018-04-08T15:16:23.649Z,45.30
2018-04-08T15:21:26.153Z,43.90
2018-04-08T15:26:28.635Z,44.20
2018-04-08T15:31:31.117Z,44.80
2018-04-08T15:36:33.605Z,44.40
2018-04-08T15:41:36.096Z,45.60
2018-04-08T15:46:38.577Z,45.30
2018-04-08T15:51:41.063Z,45.10
2018-04-08T15:56:43.556Z,46.40
2018-04-08T16:01:46.037Z,46.90
2018-04-08T16:06:48.529Z,46.70
2018-04-08T16:11:51.019Z,47.00
2018-04-08T16:16:53.504Z,47.90
2018-04-08T16:21:55.988Z,49.70
2018-04-08T16:26:59.274Z,50.30
2018-04-08T16:32:01.758Z,50.20
2018-04-08T16:37:04.240Z,50.30
2018-04-08T16:42:06.725Z,50.20
2018-04-08T16:47:09.241Z,50.70
2018-04-08T16:52:11.726Z,50.40
2018-04-08T16:57:14.217Z,50.50
2018-04-08T17:02:16.706Z,49.70
2018-04-08T17:07:19.180Z,50.20
2018-04-08T17:12:26.506Z,50.60
2018-04-08T17:17:28.986Z,50.40
2018-04-08T17:22:31.467Z,49.90
2018-04-08T17:27:33.960Z,50.00
2018-04-08T17:32:37.205Z,50.90
2018-04-08T17:37:39.685Z,50.90
2018-04-08T17:42:42.180Z,50.90
2018-04-08T17:47:44.681Z,50.70
2018-04-08T17:52:47.174Z,50.10
2018-04-08T17:57:49.649Z,50.60
2018-04-08T18:02:52.132Z,51.10
2018-04-08T18:07:54.612Z,51.20
2018-04-08T18:12:57.092Z,51.20
2018-04-08T18:17:59.581Z,50.60
2018-04-08T18:23:02.086Z,50.20
2018-04-08T18:28:04.601Z,48.50
2018-04-08T18:33:07.081Z,49.90
2018-04-08T18:38:09.553Z,50.70
2018-04-08T18:43:12.035Z,51.20
2018-04-08T18:48:15.284Z,50.80
2018-04-08T18:53:17.777Z,50.80
2018-04-08T18:58:20.280Z,50.80
2018-04-08T19:03:22.770Z,50.80
2018-04-08T19:08:25.252Z,50.80
2018-04-08T19:13:28.497Z,51.20
2018-04-08T19:18:30.996Z,51.20
2018-04-08T19:23:33.465Z,51.40
2018-04-08T19:28:35.949Z,51.50
2018-04-08T19:33:38.427Z,51.60
2018-04-08T19:38:40.900Z,51.70
2018-04-08T19:43:43.400Z,51.90
2018-04-08T19:48:45.921Z,52.00
2018-04-08T19:53:48.405Z,52.00
2018-04-08T19:58:50.882Z,52.10
2018-04-08T20:03:53.366Z,52.10
2018-04-08T20:08:55.890Z,52.10
2018-04-08T20:13:58.341Z,52.20
2018-04-08T20:19:01.578Z,52.00
2018-04-08T20:24:04.053Z,52.00
2018-04-08T20:29:06.542Z,51.90
2018-04-08T20:34:09.014Z,52.00
2018-04-08T20:39:12.262Z,51.90
2018-04-08T20:44:14.743Z,51.80
2018-04-08T20:49:17.227Z,51.90
2018-04-08T20:54:19.697Z,52.00
2018-04-08T20:59:24.971Z,51.90
2018-04-08T21:04:28.218Z,52.00
2018-04-08T21:09:30.698Z,52.10
2018-04-08T21:14:33.184Z,52.10
2018-04-08T21:19:35.661Z,52.00
2018-04-08T21:24:38.154Z,52.10
2018-04-08T21:29:40.629Z,52.10
2018-04-08T21:34:43.883Z,52.10
2018-04-08T21:39:46.358Z,52.10
2018-04-08T21:44:48.850Z,52.10
2018-04-08T21:49:51.333Z,52.20
2018-04-08T21:54:53.829Z,52.20
2018-04-08T21:59:56.302Z,52.30
2018-04-08T22:04:59.554Z,52.30
2018-04-08T22:10:02.038Z,52.10
2018-04-08T22:15:04.518Z,52.30
2018-04-08T22:20:07.001Z,52.40
2018-04-08T22:25:09.485Z,52.40
2018-04-08T22:30:12.724Z,52.50
2018-04-08T22:35:15.985Z,52.40
2018-04-08T22:40:18.466Z,52.30
2018-04-08T22:45:20.950Z,52.50
2018-04-08T22:50:23.425Z,52.50
2018-04-08T22:55:25.905Z,52.50
2018-04-08T23:00:28.386Z,52.50
2018-04-08T23:05:30.869Z,52.60
2018-04-08T23:10:33.349Z,52.60
2018-04-08T23:15:36.594Z,52.70
2018-04-08T23:20:39.069Z,52.50
2018-04-08T23:25:41.547Z,52.60
2018-04-08T23:30:44.806Z,52.50
2018-04-08T23:35:47.286Z,52.60
2018-04-08T23:40:49.780Z,52.60
2018-04-08T23:45:52.260Z,52.80
2018-04-08T23:50:54.736Z,52.70
2018-04-08T23:55:57.222Z,52.80
